sensor_id;sensor_type;location;lat;lon;timestamp;P1;durP1;ratioP1;P2;durP2;ratioP2
15905;SDS011;8051;50.820;4.884;2022-12-29T00:00:20;13.17;;;12.47;;
15905;SDS011;8051;50.820;4.884;2022-12-29T00:02:48;12.63;;;12.00;;
15905;SDS011;8051;50.820;4.884;2022-12-29T00:05:17;12.50;;;11.90;;
15905;SDS011;8051;50.820;4.884;2022-12-29T00:07:44;12.50;;;11.80;;
15905;SDS011;8051;50.820;4.884;2022-12-29T00:10:12;12.60;;;11.87;;
15905;SDS011;8051;50.820;4.884;2022-12-29T00:12:39;12.90;;;12.20;;
15905;SDS011;8051;50.820;4.884;2022-12-29T00:15:24;11.80;;;11.20;;
15905;SDS011;8051;50.820;4.884;2022-12-29T00:18:03;13.70;;;13.00;;
15905;SDS011;8051;50.820;4.884;2022-12-29T00:20:34;12.50;;;11.90;;
15905;SDS011;8051;50.820;4.884;2022-12-29T00:23:19;13.63;;;12.93;;
15905;SDS011;8051;50.820;4.884;2022-12-29T00:26:05;13.73;;;13.03;;
15905;SDS011;8051;50.820;4.884;2022-12-29T00:28:56;13.80;;;13.10;;
15905;SDS011;8051;50.820;4.884;2022-12-29T00:31:41;13.33;;;12.43;;
15905;SDS011;8051;50.820;4.884;2022-12-29T00:34:26;13.73;;;12.87;;
15905;SDS011;8051;50.820;4.884;2022-12-29T00:37:08;13.37;;;12.67;;
15905;SDS011;8051;50.820;4.884;2022-12-29T00:39:35;13.40;;;12.70;;
15905;SDS011;8051;50.820;4.884;2022-12-29T00:42:20;13.97;;;13.07;;
15905;SDS011;8051;50.820;4.884;2022-12-29T00:45:01;13.47;;;12.67;;
15905;SDS011;8051;50.820;4.884;2022-12-29T00:47:29;13.87;;;13.13;;
15905;SDS011;8051;50.820;4.884;2022-12-29T00:49:56;13.37;;;12.10;;
15905;SDS011;8051;50.820;4.884;2022-12-29T00:52:24;13.60;;;12.80;;
15905;SDS011;8051;50.820;4.884;2022-12-29T00:54:52;13.03;;;12.33;;
15905;SDS011;8051;50.820;4.884;2022-12-29T00:57:19;12.73;;;12.13;;
15905;SDS011;8051;50.820;4.884;2022-12-29T00:59:47;13.47;;;12.80;;
15905;SDS011;8051;50.820;4.884;2022-12-29T01:02:14;13.20;;;12.40;;
15905;SDS011;8051;50.820;4.884;2022-12-29T01:04:41;13.63;;;12.83;;
15905;SDS011;8051;50.820;4.884;2022-12-29T01:07:09;13.43;;;12.60;;
15905;SDS011;8051;50.820;4.884;2022-12-29T01:09:38;14.03;;;13.33;;
15905;SDS011;8051;50.820;4.884;2022-12-29T01:12:23;13.93;;;13.10;;
15905;SDS011;8051;50.820;4.884;2022-12-29T01:15:04;13.67;;;12.90;;
15905;SDS011;8051;50.820;4.884;2022-12-29T01:17:33;13.67;;;12.87;;
15905;SDS011;8051;50.820;4.884;2022-12-29T01:20:01;13.40;;;12.60;;
15905;SDS011;8051;50.820;4.884;2022-12-29T01:22:29;13.50;;;12.80;;
15905;SDS011;8051;50.820;4.884;2022-12-29T01:24:58;13.90;;;13.20;;
15905;SDS011;8051;50.820;4.884;2022-12-29T01:27:25;14.10;;;13.30;;
15905;SDS011;8051;50.820;4.884;2022-12-29T01:29:53;14.33;;;13.43;;
15905;SDS011;8051;50.820;4.884;2022-12-29T01:32:20;13.50;;;12.80;;
15905;SDS011;8051;50.820;4.884;2022-12-29T01:34:48;14.13;;;13.23;;
15905;SDS011;8051;50.820;4.884;2022-12-29T01:37:16;15.77;;;14.63;;
15905;SDS011;8051;50.820;4.884;2022-12-29T01:39:43;14.77;;;13.77;;
15905;SDS011;8051;50.820;4.884;2022-12-29T01:42:13;14.17;;;13.27;;
15905;SDS011;8051;50.820;4.884;2022-12-29T01:44:50;14.50;;;13.60;;
15905;SDS011;8051;50.820;4.884;2022-12-29T01:47:22;15.30;;;13.93;;
15905;SDS011;8051;50.820;4.884;2022-12-29T01:49:58;15.70;;;14.60;;
15905;SDS011;8051;50.820;4.884;2022-12-29T01:52:29;14.67;;;13.87;;
15905;SDS011;8051;50.820;4.884;2022-12-29T01:55:00;13.60;;;12.70;;
15905;SDS011;8051;50.820;4.884;2022-12-29T01:57:33;14.17;;;13.27;;
15905;SDS011;8051;50.820;4.884;2022-12-29T02:00:05;13.07;;;12.27;;
15905;SDS011;8051;50.820;4.884;2022-12-29T02:02:34;13.10;;;12.10;;
15905;SDS011;8051;50.820;4.884;2022-12-29T02:05:03;12.57;;;11.90;;
15905;SDS011;8051;50.820;4.884;2022-12-29T02:07:35;12.33;;;11.57;;
15905;SDS011;8051;50.820;4.884;2022-12-29T02:10:04;11.93;;;11.07;;
15905;SDS011;8051;50.820;4.884;2022-12-29T02:12:34;11.73;;;11.03;;
15905;SDS011;8051;50.820;4.884;2022-12-29T02:15:02;10.90;;;10.40;;
15905;SDS011;8051;50.820;4.884;2022-12-29T02:17:34;12.20;;;11.50;;
15905;SDS011;8051;50.820;4.884;2022-12-29T02:26:57;12.63;;;12.03;;
15905;SDS011;8051;50.820;4.884;2022-12-29T02:29:53;13.00;;;12.17;;
15905;SDS011;8051;50.820;4.884;2022-12-29T02:32:43;12.33;;;11.47;;
15905;SDS011;8051;50.820;4.884;2022-12-29T02:35:19;12.20;;;11.60;;
15905;SDS011;8051;50.820;4.884;2022-12-29T02:37:55;11.80;;;11.00;;
15905;SDS011;8051;50.820;4.884;2022-12-29T02:40:32;11.67;;;10.90;;
15905;SDS011;8051;50.820;4.884;2022-12-29T02:43:10;10.60;;;10.10;;
15905;SDS011;8051;50.820;4.884;2022-12-29T02:45:48;10.50;;;9.90;;
15905;SDS011;8051;50.820;4.884;2022-12-29T02:48:23;10.70;;;10.10;;
15905;SDS011;8051;50.820;4.884;2022-12-29T02:50:57;9.27;;;8.87;;
15905;SDS011;8051;50.820;4.884;2022-12-29T02:53:27;9.50;;;9.10;;
15905;SDS011;8051;50.820;4.884;2022-12-29T02:56:14;9.80;;;9.27;;
15905;SDS011;8051;50.820;4.884;2022-12-29T02:58:43;9.67;;;9.00;;
15905;SDS011;8051;50.820;4.884;2022-12-29T03:01:16;9.60;;;9.00;;
15905;SDS011;8051;50.820;4.884;2022-12-29T03:03:56;10.00;;;9.30;;
15905;SDS011;8051;50.820;4.884;2022-12-29T03:06:49;9.13;;;8.57;;
15905;SDS011;8051;50.820;4.884;2022-12-29T03:09:26;9.33;;;8.63;;
15905;SDS011;8051;50.820;4.884;2022-12-29T03:12:03;9.23;;;8.63;;
15905;SDS011;8051;50.820;4.884;2022-12-29T03:14:46;9.07;;;8.47;;
15905;SDS011;8051;50.820;4.884;2022-12-29T03:20:20;8.60;;;8.00;;
15905;SDS011;8051;50.820;4.884;2022-12-29T03:22:51;9.67;;;9.07;;
15905;SDS011;8051;50.820;4.884;2022-12-29T03:25:26;9.87;;;9.30;;
15905;SDS011;8051;50.820;4.884;2022-12-29T03:27:57;10.67;;;9.97;;
15905;SDS011;8051;50.820;4.884;2022-12-29T03:30:28;11.13;;;10.30;;
15905;SDS011;8051;50.820;4.884;2022-12-29T03:32:58;11.47;;;10.87;;
15905;SDS011;8051;50.820;4.884;2022-12-29T03:35:31;12.57;;;11.40;;
15905;SDS011;8051;50.820;4.884;2022-12-29T03:38:05;12.07;;;11.07;;
15905;SDS011;8051;50.820;4.884;2022-12-29T03:40:37;11.67;;;10.90;;
15905;SDS011;8051;50.820;4.884;2022-12-29T03:43:07;11.23;;;10.53;;
15905;SDS011;8051;50.820;4.884;2022-12-29T03:45:35;11.30;;;10.40;;
15905;SDS011;8051;50.820;4.884;2022-12-29T03:48:03;10.87;;;10.17;;
15905;SDS011;8051;50.820;4.884;2022-12-29T03:50:32;11.00;;;10.30;;
15905;SDS011;8051;50.820;4.884;2022-12-29T03:52:59;11.83;;;10.87;;
15905;SDS011;8051;50.820;4.884;2022-12-29T03:55:27;11.73;;;10.93;;
15905;SDS011;8051;50.820;4.884;2022-12-29T03:57:54;12.27;;;11.43;;
15905;SDS011;8051;50.820;4.884;2022-12-29T04:00:22;11.90;;;11.00;;
15905;SDS011;8051;50.820;4.884;2022-12-29T04:02:49;11.83;;;11.20;;
15905;SDS011;8051;50.820;4.884;2022-12-29T04:05:17;11.97;;;11.07;;
15905;SDS011;8051;50.820;4.884;2022-12-29T04:07:45;11.67;;;10.70;;
15905;SDS011;8051;50.820;4.884;2022-12-29T04:10:13;13.07;;;11.97;;
15905;SDS011;8051;50.820;4.884;2022-12-29T04:12:41;12.43;;;11.70;;
15905;SDS011;8051;50.820;4.884;2022-12-29T04:15:08;12.53;;;11.83;;
15905;SDS011;8051;50.820;4.884;2022-12-29T04:17:36;12.63;;;11.90;;
15905;SDS011;8051;50.820;4.884;2022-12-29T04:20:04;12.20;;;11.40;;
15905;SDS011;8051;50.820;4.884;2022-12-29T04:22:51;13.87;;;12.80;;
15905;SDS011;8051;50.820;4.884;2022-12-29T04:25:25;12.80;;;11.90;;
15905;SDS011;8051;50.820;4.884;2022-12-29T04:27:52;13.03;;;12.33;;
15905;SDS011;8051;50.820;4.884;2022-12-29T04:30:20;13.87;;;12.43;;
15905;SDS011;8051;50.820;4.884;2022-12-29T04:32:47;12.73;;;11.93;;
15905;SDS011;8051;50.820;4.884;2022-12-29T04:35:15;13.27;;;12.33;;
15905;SDS011;8051;50.820;4.884;2022-12-29T04:37:42;14.13;;;12.80;;
15905;SDS011;8051;50.820;4.884;2022-12-29T04:40:12;10.97;;;10.37;;
15905;SDS011;8051;50.820;4.884;2022-12-29T04:42:39;12.00;;;11.33;;
15905;SDS011;8051;50.820;4.884;2022-12-29T04:45:07;11.90;;;11.10;;
15905;SDS011;8051;50.820;4.884;2022-12-29T04:47:35;11.03;;;10.33;;
15905;SDS011;8051;50.820;4.884;2022-12-29T04:50:03;11.97;;;11.07;;
15905;SDS011;8051;50.820;4.884;2022-12-29T04:52:31;12.80;;;11.90;;
15905;SDS011;8051;50.820;4.884;2022-12-29T04:54:59;11.87;;;10.90;;
15905;SDS011;8051;50.820;4.884;2022-12-29T04:57:27;13.10;;;12.20;;
15905;SDS011;8051;50.820;4.884;2022-12-29T04:59:54;12.70;;;11.60;;
15905;SDS011;8051;50.820;4.884;2022-12-29T05:02:22;12.73;;;11.70;;
15905;SDS011;8051;50.820;4.884;2022-12-29T05:04:49;12.53;;;11.80;;
15905;SDS011;8051;50.820;4.884;2022-12-29T05:07:17;12.90;;;11.83;;
15905;SDS011;8051;50.820;4.884;2022-12-29T05:09:45;13.90;;;12.77;;
15905;SDS011;8051;50.820;4.884;2022-12-29T05:12:12;14.63;;;13.43;;
15905;SDS011;8051;50.820;4.884;2022-12-29T05:14:41;15.10;;;14.20;;
15905;SDS011;8051;50.820;4.884;2022-12-29T05:17:09;14.77;;;13.87;;
15905;SDS011;8051;50.820;4.884;2022-12-29T05:19:36;16.13;;;14.90;;
15905;SDS011;8051;50.820;4.884;2022-12-29T05:22:04;13.80;;;12.90;;
15905;SDS011;8051;50.820;4.884;2022-12-29T05:24:32;14.80;;;13.90;;
15905;SDS011;8051;50.820;4.884;2022-12-29T05:26:59;13.27;;;12.33;;
15905;SDS011;8051;50.820;4.884;2022-12-29T05:29:26;13.17;;;12.27;;
15905;SDS011;8051;50.820;4.884;2022-12-29T05:31:55;15.27;;;14.37;;
15905;SDS011;8051;50.820;4.884;2022-12-29T05:34:23;14.93;;;14.00;;
15905;SDS011;8051;50.820;4.884;2022-12-29T05:36:50;13.57;;;12.63;;
15905;SDS011;8051;50.820;4.884;2022-12-29T05:39:17;14.23;;;13.17;;
15905;SDS011;8051;50.820;4.884;2022-12-29T05:41:45;16.80;;;15.37;;
15905;SDS011;8051;50.820;4.884;2022-12-29T05:44:12;14.63;;;13.20;;
15905;SDS011;8051;50.820;4.884;2022-12-29T05:46:40;14.57;;;13.50;;
15905;SDS011;8051;50.820;4.884;2022-12-29T05:49:09;14.90;;;14.03;;
15905;SDS011;8051;50.820;4.884;2022-12-29T05:51:36;15.50;;;14.17;;
15905;SDS011;8051;50.820;4.884;2022-12-29T05:54:04;14.33;;;13.23;;
15905;SDS011;8051;50.820;4.884;2022-12-29T05:56:32;13.47;;;12.60;;
15905;SDS011;8051;50.820;4.884;2022-12-29T05:58:59;14.97;;;13.60;;
15905;SDS011;8051;50.820;4.884;2022-12-29T06:01:27;15.67;;;14.77;;
15905;SDS011;8051;50.820;4.884;2022-12-29T06:03:54;15.77;;;14.47;;
15905;SDS011;8051;50.820;4.884;2022-12-29T06:06:23;15.57;;;14.27;;
15905;SDS011;8051;50.820;4.884;2022-12-29T06:08:50;16.07;;;14.47;;
15905;SDS011;8051;50.820;4.884;2022-12-29T06:11:18;15.87;;;14.40;;
15905;SDS011;8051;50.820;4.884;2022-12-29T06:13:46;16.47;;;14.83;;
15905;SDS011;8051;50.820;4.884;2022-12-29T06:16:13;15.83;;;14.63;;
15905;SDS011;8051;50.820;4.884;2022-12-29T06:18:41;15.33;;;14.17;;
15905;SDS011;8051;50.820;4.884;2022-12-29T06:21:08;15.97;;;14.70;;
15905;SDS011;8051;50.820;4.884;2022-12-29T06:23:37;16.17;;;15.00;;
15905;SDS011;8051;50.820;4.884;2022-12-29T06:26:05;15.90;;;14.20;;
15905;SDS011;8051;50.820;4.884;2022-12-29T06:28:32;17.10;;;15.80;;
15905;SDS011;8051;50.820;4.884;2022-12-29T06:31:00;17.03;;;12.80;;
15905;SDS011;8051;50.820;4.884;2022-12-29T06:33:28;15.57;;;14.33;;
15905;SDS011;8051;50.820;4.884;2022-12-29T06:35:55;15.80;;;14.33;;
15905;SDS011;8051;50.820;4.884;2022-12-29T06:38:23;15.23;;;13.93;;
15905;SDS011;8051;50.820;4.884;2022-12-29T06:40:52;14.77;;;13.47;;
15905;SDS011;8051;50.820;4.884;2022-12-29T06:43:19;15.87;;;14.50;;
15905;SDS011;8051;50.820;4.884;2022-12-29T06:45:47;16.20;;;15.10;;
15905;SDS011;8051;50.820;4.884;2022-12-29T06:48:14;15.63;;;14.17;;
15905;SDS011;8051;50.820;4.884;2022-12-29T06:50:42;14.97;;;13.70;;
15905;SDS011;8051;50.820;4.884;2022-12-29T06:53:09;15.13;;;13.60;;
15905;SDS011;8051;50.820;4.884;2022-12-29T06:55:37;15.17;;;14.20;;
15905;SDS011;8051;50.820;4.884;2022-12-29T06:58:06;15.60;;;14.60;;
15905;SDS011;8051;50.820;4.884;2022-12-29T07:00:33;15.30;;;13.80;;
15905;SDS011;8051;50.820;4.884;2022-12-29T07:03:01;16.80;;;15.47;;
15905;SDS011;8051;50.820;4.884;2022-12-29T07:05:28;16.70;;;15.47;;
15905;SDS011;8051;50.820;4.884;2022-12-29T07:07:57;15.47;;;14.13;;
15905;SDS011;8051;50.820;4.884;2022-12-29T07:10:25;17.27;;;15.80;;
15905;SDS011;8051;50.820;4.884;2022-12-29T07:12:53;16.23;;;15.07;;
15905;SDS011;8051;50.820;4.884;2022-12-29T07:15:22;18.03;;;16.40;;
15905;SDS011;8051;50.820;4.884;2022-12-29T07:17:49;16.40;;;15.27;;
15905;SDS011;8051;50.820;4.884;2022-12-29T07:20:17;16.87;;;15.30;;
15905;SDS011;8051;50.820;4.884;2022-12-29T07:22:45;17.63;;;16.03;;
15905;SDS011;8051;50.820;4.884;2022-12-29T07:25:12;16.07;;;14.50;;
15905;SDS011;8051;50.820;4.884;2022-12-29T07:27:40;16.30;;;14.93;;
15905;SDS011;8051;50.820;4.884;2022-12-29T07:30:08;15.77;;;14.30;;
15905;SDS011;8051;50.820;4.884;2022-12-29T07:32:38;16.70;;;15.20;;
15905;SDS011;8051;50.820;4.884;2022-12-29T07:35:05;17.37;;;15.93;;
15905;SDS011;8051;50.820;4.884;2022-12-29T07:37:33;15.20;;;13.83;;
15905;SDS011;8051;50.820;4.884;2022-12-29T07:40:01;16.57;;;14.93;;
15905;SDS011;8051;50.820;4.884;2022-12-29T07:42:29;17.07;;;15.37;;
15905;SDS011;8051;50.820;4.884;2022-12-29T07:44:57;17.70;;;16.20;;
15905;SDS011;8051;50.820;4.884;2022-12-29T07:47:25;18.13;;;16.83;;
15905;SDS011;8051;50.820;4.884;2022-12-29T07:49:54;18.10;;;16.30;;
15905;SDS011;8051;50.820;4.884;2022-12-29T07:52:21;19.00;;;17.30;;
15905;SDS011;8051;50.820;4.884;2022-12-29T07:54:48;16.57;;;14.70;;
15905;SDS011;8051;50.820;4.884;2022-12-29T07:57:16;20.23;;;14.00;;
15905;SDS011;8051;50.820;4.884;2022-12-29T07:59:43;16.30;;;15.20;;
15905;SDS011;8051;50.820;4.884;2022-12-29T08:02:11;17.20;;;15.80;;
15905;SDS011;8051;50.820;4.884;2022-12-29T08:04:38;17.23;;;16.10;;
15905;SDS011;8051;50.820;4.884;2022-12-29T08:07:07;18.63;;;16.77;;
15905;SDS011;8051;50.820;4.884;2022-12-29T08:09:35;18.87;;;16.97;;
15905;SDS011;8051;50.820;4.884;2022-12-29T08:12:02;18.23;;;16.50;;
15905;SDS011;8051;50.820;4.884;2022-12-29T08:14:30;18.23;;;16.50;;
15905;SDS011;8051;50.820;4.884;2022-12-29T08:16:57;17.93;;;16.60;;
15905;SDS011;8051;50.820;4.884;2022-12-29T08:19:25;19.97;;;18.50;;
15905;SDS011;8051;50.820;4.884;2022-12-29T08:21:52;18.40;;;16.80;;
15905;SDS011;8051;50.820;4.884;2022-12-29T08:24:22;21.20;;;18.33;;
15905;SDS011;8051;50.820;4.884;2022-12-29T08:26:49;18.57;;;16.97;;
15905;SDS011;8051;50.820;4.884;2022-12-29T08:29:17;19.10;;;17.47;;
15905;SDS011;8051;50.820;4.884;2022-12-29T08:31:44;17.70;;;16.23;;
15905;SDS011;8051;50.820;4.884;2022-12-29T08:34:12;20.10;;;18.07;;
15905;SDS011;8051;50.820;4.884;2022-12-29T08:36:39;19.37;;;18.07;;
15905;SDS011;8051;50.820;4.884;2022-12-29T08:39:07;19.60;;;17.63;;
15905;SDS011;8051;50.820;4.884;2022-12-29T08:41:35;20.10;;;18.40;;
15905;SDS011;8051;50.820;4.884;2022-12-29T08:44:03;19.17;;;17.40;;
15905;SDS011;8051;50.820;4.884;2022-12-29T08:46:31;18.73;;;17.17;;
15905;SDS011;8051;50.820;4.884;2022-12-29T08:48:58;18.87;;;17.30;;
15905;SDS011;8051;50.820;4.884;2022-12-29T08:51:26;20.60;;;18.43;;
15905;SDS011;8051;50.820;4.884;2022-12-29T08:53:53;19.57;;;17.57;;
15905;SDS011;8051;50.820;4.884;2022-12-29T08:56:21;19.70;;;18.20;;
15905;SDS011;8051;50.820;4.884;2022-12-29T08:58:50;20.57;;;18.63;;
15905;SDS011;8051;50.820;4.884;2022-12-29T09:01:18;21.30;;;19.40;;
15905;SDS011;8051;50.820;4.884;2022-12-29T09:03:46;20.20;;;18.60;;
15905;SDS011;8051;50.820;4.884;2022-12-29T09:06:14;21.00;;;18.37;;
15905;SDS011;8051;50.820;4.884;2022-12-29T09:08:43;21.20;;;19.37;;
15905;SDS011;8051;50.820;4.884;2022-12-29T09:11:13;19.43;;;17.57;;
15905;SDS011;8051;50.820;4.884;2022-12-29T09:13:42;20.80;;;18.80;;
15905;SDS011;8051;50.820;4.884;2022-12-29T09:16:11;20.30;;;18.30;;
15905;SDS011;8051;50.820;4.884;2022-12-29T09:18:38;26.40;;;17.03;;
15905;SDS011;8051;50.820;4.884;2022-12-29T09:21:06;19.20;;;17.33;;
15905;SDS011;8051;50.820;4.884;2022-12-29T09:23:34;18.63;;;17.23;;
15905;SDS011;8051;50.820;4.884;2022-12-29T09:26:02;19.07;;;17.33;;
15905;SDS011;8051;50.820;4.884;2022-12-29T09:28:30;18.53;;;16.83;;
15905;SDS011;8051;50.820;4.884;2022-12-29T09:30:58;18.90;;;17.27;;
15905;SDS011;8051;50.820;4.884;2022-12-29T09:33:27;19.33;;;17.80;;
15905;SDS011;8051;50.820;4.884;2022-12-29T09:35:55;23.73;;;19.07;;
15905;SDS011;8051;50.820;4.884;2022-12-29T09:38:25;18.40;;;16.73;;
15905;SDS011;8051;50.820;4.884;2022-12-29T09:40:54;22.40;;;17.20;;
15905;SDS011;8051;50.820;4.884;2022-12-29T09:43:26;19.83;;;17.93;;
15905;SDS011;8051;50.820;4.884;2022-12-29T09:46:13;18.90;;;17.17;;
15905;SDS011;8051;50.820;4.884;2022-12-29T09:48:53;19.07;;;17.37;;
15905;SDS011;8051;50.820;4.884;2022-12-29T09:51:27;19.23;;;17.80;;
15905;SDS011;8051;50.820;4.884;2022-12-29T09:53:56;18.17;;;16.30;;
15905;SDS011;8051;50.820;4.884;2022-12-29T09:56:26;19.37;;;17.50;;
15905;SDS011;8051;50.820;4.884;2022-12-29T09:58:56;19.70;;;17.73;;
15905;SDS011;8051;50.820;4.884;2022-12-29T10:01:29;18.50;;;17.00;;
15905;SDS011;8051;50.820;4.884;2022-12-29T10:04:01;19.00;;;17.20;;
15905;SDS011;8051;50.820;4.884;2022-12-29T10:06:32;19.00;;;17.30;;
15905;SDS011;8051;50.820;4.884;2022-12-29T10:09:08;18.47;;;16.77;;
15905;SDS011;8051;50.820;4.884;2022-12-29T10:11:52;18.70;;;17.23;;
15905;SDS011;8051;50.820;4.884;2022-12-29T10:14:33;19.73;;;18.00;;
15905;SDS011;8051;50.820;4.884;2022-12-29T10:17:18;19.30;;;17.73;;
15905;SDS011;8051;50.820;4.884;2022-12-29T10:20:03;18.73;;;17.07;;
15905;SDS011;8051;50.820;4.884;2022-12-29T10:22:47;18.00;;;16.40;;
15905;SDS011;8051;50.820;4.884;2022-12-29T10:25:26;19.37;;;17.40;;
15905;SDS011;8051;50.820;4.884;2022-12-29T10:27:59;17.47;;;16.10;;
15905;SDS011;8051;50.820;4.884;2022-12-29T10:30:31;19.60;;;18.20;;
15905;SDS011;8051;50.820;4.884;2022-12-29T10:33:01;17.43;;;16.30;;
15905;SDS011;8051;50.820;4.884;2022-12-29T10:35:34;19.13;;;17.37;;
15905;SDS011;8051;50.820;4.884;2022-12-29T10:38:11;19.83;;;17.37;;
15905;SDS011;8051;50.820;4.884;2022-12-29T10:40:46;18.63;;;17.10;;
15905;SDS011;8051;50.820;4.884;2022-12-29T10:43:19;19.40;;;17.70;;
15905;SDS011;8051;50.820;4.884;2022-12-29T10:45:51;18.63;;;16.90;;
15905;SDS011;8051;50.820;4.884;2022-12-29T10:48:20;20.00;;;18.27;;
15905;SDS011;8051;50.820;4.884;2022-12-29T10:50:51;21.63;;;17.47;;
15905;SDS011;8051;50.820;4.884;2022-12-29T10:53:23;16.80;;;15.43;;
15905;SDS011;8051;50.820;4.884;2022-12-29T10:55:53;19.17;;;17.23;;
15905;SDS011;8051;50.820;4.884;2022-12-29T10:58:22;18.60;;;16.77;;
15905;SDS011;8051;50.820;4.884;2022-12-29T11:00:52;18.30;;;16.73;;
15905;SDS011;8051;50.820;4.884;2022-12-29T11:06:27;18.77;;;16.90;;
15905;SDS011;8051;50.820;4.884;2022-12-29T11:08:57;18.63;;;16.77;;
15905;SDS011;8051;50.820;4.884;2022-12-29T11:11:26;17.57;;;16.10;;
15905;SDS011;8051;50.820;4.884;2022-12-29T11:14:02;17.80;;;16.17;;
15905;SDS011;8051;50.820;4.884;2022-12-29T11:16:37;18.43;;;16.73;;
15905;SDS011;8051;50.820;4.884;2022-12-29T11:19:09;18.23;;;16.93;;
15905;SDS011;8051;50.820;4.884;2022-12-29T11:21:49;19.10;;;17.20;;
15905;SDS011;8051;50.820;4.884;2022-12-29T11:24:21;18.10;;;16.50;;
15905;SDS011;8051;50.820;4.884;2022-12-29T11:26:50;19.10;;;17.27;;
15905;SDS011;8051;50.820;4.884;2022-12-29T11:29:23;18.43;;;16.57;;
15905;SDS011;8051;50.820;4.884;2022-12-29T11:31:53;18.50;;;16.87;;
15905;SDS011;8051;50.820;4.884;2022-12-29T11:34:24;17.67;;;16.27;;
15905;SDS011;8051;50.820;4.884;2022-12-29T11:36:59;18.80;;;17.30;;
15905;SDS011;8051;50.820;4.884;2022-12-29T11:39:30;22.37;;;16.77;;
15905;SDS011;8051;50.820;4.884;2022-12-29T11:42:04;21.80;;;17.67;;
15905;SDS011;8051;50.820;4.884;2022-12-29T11:44:42;18.83;;;17.17;;
15905;SDS011;8051;50.820;4.884;2022-12-29T11:47:13;19.63;;;17.87;;
15905;SDS011;8051;50.820;4.884;2022-12-29T11:49:49;18.47;;;17.00;;
15905;SDS011;8051;50.820;4.884;2022-12-29T11:52:22;18.30;;;16.70;;
15905;SDS011;8051;50.820;4.884;2022-12-29T11:54:52;18.60;;;17.00;;
15905;SDS011;8051;50.820;4.884;2022-12-29T11:57:21;18.20;;;16.63;;
15905;SDS011;8051;50.820;4.884;2022-12-29T11:59:50;18.90;;;16.90;;
15905;SDS011;8051;50.820;4.884;2022-12-29T12:02:30;18.53;;;16.97;;
15905;SDS011;8051;50.820;4.884;2022-12-29T12:05:08;18.73;;;17.30;;
15905;SDS011;8051;50.820;4.884;2022-12-29T12:07:43;18.30;;;16.80;;
15905;SDS011;8051;50.820;4.884;2022-12-29T12:10:15;17.40;;;16.07;;
15905;SDS011;8051;50.820;4.884;2022-12-29T12:12:50;18.30;;;16.90;;
15905;SDS011;8051;50.820;4.884;2022-12-29T12:15:22;17.97;;;16.50;;
15905;SDS011;8051;50.820;4.884;2022-12-29T12:17:53;17.27;;;15.97;;
15905;SDS011;8051;50.820;4.884;2022-12-29T12:20:26;18.13;;;16.83;;
15905;SDS011;8051;50.820;4.884;2022-12-29T12:23:06;19.30;;;17.40;;
15905;SDS011;8051;50.820;4.884;2022-12-29T12:25:39;18.47;;;16.73;;
15905;SDS011;8051;50.820;4.884;2022-12-29T12:28:17;19.50;;;17.50;;
15905;SDS011;8051;50.820;4.884;2022-12-29T12:30:52;18.07;;;16.53;;
15905;SDS011;8051;50.820;4.884;2022-12-29T12:33:24;17.43;;;16.17;;
15905;SDS011;8051;50.820;4.884;2022-12-29T12:36:04;18.90;;;17.20;;
15905;SDS011;8051;50.820;4.884;2022-12-29T12:38:49;17.97;;;16.40;;
15905;SDS011;8051;50.820;4.884;2022-12-29T12:41:24;18.23;;;16.70;;
15905;SDS011;8051;50.820;4.884;2022-12-29T12:44:01;19.93;;;17.10;;
15905;SDS011;8051;50.820;4.884;2022-12-29T12:46:42;18.70;;;17.30;;
15905;SDS011;8051;50.820;4.884;2022-12-29T12:49:44;17.20;;;16.00;;
15905;SDS011;8051;50.820;4.884;2022-12-29T12:52:44;17.53;;;16.10;;
15905;SDS011;8051;50.820;4.884;2022-12-29T12:55:33;18.70;;;17.10;;
15905;SDS011;8051;50.820;4.884;2022-12-29T12:58:16;18.67;;;16.90;;
15905;SDS011;8051;50.820;4.884;2022-12-29T13:00:52;18.83;;;17.23;;
15905;SDS011;8051;50.820;4.884;2022-12-29T13:03:31;17.70;;;16.50;;
15905;SDS011;8051;50.820;4.884;2022-12-29T13:06:14;19.33;;;17.53;;
15905;SDS011;8051;50.820;4.884;2022-12-29T13:08:49;19.67;;;18.17;;
15905;SDS011;8051;50.820;4.884;2022-12-29T13:11:35;18.30;;;16.80;;
15905;SDS011;8051;50.820;4.884;2022-12-29T13:14:14;18.37;;;16.57;;
15905;SDS011;8051;50.820;4.884;2022-12-29T13:16:49;18.50;;;16.97;;
15905;SDS011;8051;50.820;4.884;2022-12-29T13:19:27;19.30;;;17.70;;
15905;SDS011;8051;50.820;4.884;2022-12-29T13:22:02;18.57;;;17.23;;
15905;SDS011;8051;50.820;4.884;2022-12-29T13:24:38;18.47;;;16.63;;
15905;SDS011;8051;50.820;4.884;2022-12-29T13:27:22;20.60;;;18.77;;
15905;SDS011;8051;50.820;4.884;2022-12-29T13:29:58;18.60;;;17.10;;
15905;SDS011;8051;50.820;4.884;2022-12-29T13:32:35;19.63;;;17.67;;
15905;SDS011;8051;50.820;4.884;2022-12-29T13:35:14;19.27;;;17.43;;
15905;SDS011;8051;50.820;4.884;2022-12-29T13:37:50;18.57;;;17.13;;
15905;SDS011;8051;50.820;4.884;2022-12-29T13:40:22;20.33;;;18.50;;
15905;SDS011;8051;50.820;4.884;2022-12-29T13:42:53;21.60;;;19.40;;
15905;SDS011;8051;50.820;4.884;2022-12-29T13:45:24;21.07;;;19.13;;
15905;SDS011;8051;50.820;4.884;2022-12-29T13:47:55;22.33;;;20.23;;
15905;SDS011;8051;50.820;4.884;2022-12-29T13:50:29;22.23;;;20.33;;
15905;SDS011;8051;50.820;4.884;2022-12-29T13:53:06;24.13;;;21.90;;
15905;SDS011;8051;50.820;4.884;2022-12-29T13:55:45;24.90;;;22.60;;
15905;SDS011;8051;50.820;4.884;2022-12-29T13:58:24;27.90;;;25.17;;
15905;SDS011;8051;50.820;4.884;2022-12-29T14:00:59;31.50;;;28.17;;
15905;SDS011;8051;50.820;4.884;2022-12-29T14:03:49;27.83;;;25.17;;
15905;SDS011;8051;50.820;4.884;2022-12-29T14:06:20;27.07;;;24.67;;
15905;SDS011;8051;50.820;4.884;2022-12-29T14:08:50;25.17;;;22.67;;
15905;SDS011;8051;50.820;4.884;2022-12-29T14:11:21;29.97;;;26.80;;
15905;SDS011;8051;50.820;4.884;2022-12-29T14:13:55;24.07;;;21.73;;
15905;SDS011;8051;50.820;4.884;2022-12-29T14:16:26;24.53;;;22.00;;
15905;SDS011;8051;50.820;4.884;2022-12-29T14:18:56;26.00;;;23.40;;
15905;SDS011;8051;50.820;4.884;2022-12-29T14:21:32;24.27;;;21.97;;
15905;SDS011;8051;50.820;4.884;2022-12-29T14:33:16;20.40;;;18.17;;
15905;SDS011;8051;50.820;4.884;2022-12-29T14:35:45;17.20;;;15.53;;
15905;SDS011;8051;50.820;4.884;2022-12-29T14:38:15;17.67;;;15.97;;
15905;SDS011;8051;50.820;4.884;2022-12-29T14:40:46;18.67;;;15.87;;
15905;SDS011;8051;50.820;4.884;2022-12-29T14:43:17;21.07;;;16.40;;
15905;SDS011;8051;50.820;4.884;2022-12-29T14:45:54;17.90;;;15.83;;
15905;SDS011;8051;50.820;4.884;2022-12-29T14:48:31;22.17;;;17.03;;
15905;SDS011;8051;50.820;4.884;2022-12-29T14:51:17;23.07;;;18.10;;
15905;SDS011;8051;50.820;4.884;2022-12-29T14:53:48;20.13;;;18.20;;
15905;SDS011;8051;50.820;4.884;2022-12-29T14:56:17;22.20;;;19.03;;
15905;SDS011;8051;50.820;4.884;2022-12-29T14:58:48;20.90;;;18.20;;
15905;SDS011;8051;50.820;4.884;2022-12-29T15:01:22;22.10;;;18.57;;
15905;SDS011;8051;50.820;4.884;2022-12-29T15:04:04;20.53;;;18.87;;
15905;SDS011;8051;50.820;4.884;2022-12-29T15:06:41;25.53;;;18.90;;
15905;SDS011;8051;50.820;4.884;2022-12-29T15:09:12;19.20;;;17.60;;
15905;SDS011;8051;50.820;4.884;2022-12-29T15:11:52;18.67;;;16.67;;
15905;SDS011;8051;50.820;4.884;2022-12-29T15:14:29;20.03;;;18.53;;
15905;SDS011;8051;50.820;4.884;2022-12-29T15:17:01;20.63;;;18.67;;
15905;SDS011;8051;50.820;4.884;2022-12-29T15:19:35;20.30;;;18.10;;
15905;SDS011;8051;50.820;4.884;2022-12-29T15:22:03;20.47;;;18.20;;
15905;SDS011;8051;50.820;4.884;2022-12-29T15:24:32;20.70;;;18.27;;